Time;durP1;ratioP1;P1;durP2;ratioP2;P2;SDS_P1;SDS_P2;PMS_P1;PMS_P2;Temp;Humidity;BMP_temperature;BMP_pressure;BME280_temperature;BME280_humidity;BME280_pressure;Samples;Min_cycle;Max_cycle;Signal;HPM_P1;HPM_P2
2023/05/18 00:02:07;;;;;;;5.00;1.67;;;15.40;66.70;;;;;;5055355;28;20075;-67
2023/05/18 00:04:35;;;;;;;3.90;1.70;;;15.40;67.00;;;;;;5055183;28;20032;-68
2023/05/18 00:07:03;;;;;;;1.95;1.40;;;15.40;67.20;;;;;;5055779;28;20433;-67
2023/05/18 00:09:32;;;;;;;1.92;1.30;;;15.40;67.20;;;;;;5055187;28;20400;-68
2023/05/18 00:11:58;;;;;;;2.78;1.58;;;15.30;67.20;;;;;;5055168;28;20096;-68
2023/05/18 00:14:25;;;;;;;1.80;1.02;;;15.30;67.20;;;;;;5054495;28;20031;-68
2023/05/18 00:16:53;;;;;;;1.67;1.17;;;15.30;67.20;;;;;;5055360;28;20439;-68
2023/05/18 00:19:22;;;;;;;1.48;1.15;;;15.30;67.30;;;;;;5055075;28;20107;-68
2023/05/18 00:21:50;;;;;;;3.40;1.20;;;15.30;67.20;;;;;;5055019;28;20454;-68
2023/05/18 00:24:16;;;;;;;1.00;0.90;;;15.20;67.20;;;;;;5055234;28;20021;-67
2023/05/18 00:26:45;;;;;;;2.50;1.00;;;15.20;67.20;;;;;;5055479;28;20431;-67
2023/05/18 00:29:11;;;;;;;2.05;0.90;;;15.10;67.30;;;;;;5054985;28;20434;-67
2023/05/18 00:31:38;;;;;;;1.25;0.90;;;15.10;67.40;;;;;;5054975;28;20029;-68
2023/05/18 00:34:05;;;;;;;1.75;0.90;;;15.10;67.50;;;;;;5055147;28;20429;-68
2023/05/18 00:36:31;;;;;;;1.05;0.90;;;15.10;67.60;;;;;;5055198;28;20468;-68
2023/05/18 00:39:00;;;;;;;4.00;1.25;;;15.00;67.90;;;;;;5055087;28;20025;-68
2023/05/18 00:41:27;;;;;;;2.90;1.15;;;15.10;68.10;;;;;;5055132;28;20025;-67
2023/05/18 00:43:53;;;;;;;1.35;0.80;;;15.10;68.10;;;;;;5055025;28;20090;-68
2023/05/18 00:46:20;;;;;;;3.72;1.13;;;15.00;68.10;;;;;;5054859;28;20021;-68
2023/05/18 00:48:48;;;;;;;2.17;1.00;;;14.90;68.10;;;;;;5055331;28;20025;-67
2023/05/18 00:51:14;;;;;;;1.02;0.80;;;14.90;68.20;;;;;;5054818;28;20036;-68
2023/05/18 00:53:42;;;;;;;1.42;0.82;;;14.90;68.20;;;;;;5054948;28;20025;-68
2023/05/18 00:56:09;;;;;;;2.75;0.90;;;14.90;68.30;;;;;;5055263;28;20036;-67
2023/05/18 00:58:37;;;;;;;1.27;1.15;;;14.80;69.00;;;;;;5054430;28;20128;-67
2023/05/18 01:01:04;;;;;;;0.95;0.85;;;14.80;69.30;;;;;;5054933;28;20022;-68
2023/05/18 01:03:33;;;;;;;1.55;0.95;;;14.70;69.10;;;;;;5054965;28;20342;-67
2023/05/18 01:05:59;;;;;;;2.70;0.95;;;14.70;69.10;;;;;;5055338;28;20033;-68
2023/05/18 01:08:26;;;;;;;3.30;1.40;;;14.70;69.10;;;;;;5055090;28;20323;-67
2023/05/18 01:11:07;;;;;;;1.25;1.00;;;14.60;69.20;;;;;;5054627;28;20035;-68
2023/05/18 01:13:45;;;;;;;1.45;0.85;;;14.60;69.30;;;;;;5055136;28;20100;-67
2023/05/18 01:16:17;;;;;;;2.72;1.45;;;14.60;69.10;;;;;;5055134;28;20029;-68
2023/05/18 01:18:54;;;;;;;1.38;0.90;;;14.60;68.90;;;;;;5054736;28;20485;-68
2023/05/18 01:21:34;;;;;;;1.75;0.95;;;14.60;69.10;;;;;;5054785;28;20036;-67
2023/05/18 01:24:17;;;;;;;2.30;0.93;;;14.60;69.10;;;;;;5054911;28;20024;-67
2023/05/18 01:26:45;;;;;;;2.03;0.80;;;14.60;69.20;;;;;;5056325;28;20033;-68
2023/05/18 01:29:14;;;;;;;1.30;0.90;;;14.60;69.30;;;;;;5058197;28;20584;-68
2023/05/18 01:31:40;;;;;;;1.13;1.00;;;14.60;69.40;;;;;;5058452;28;20044;-68
2023/05/18 01:34:06;;;;;;;1.65;1.02;;;14.60;69.50;;;;;;5058282;28;20060;-68
2023/05/18 01:36:32;;;;;;;0.73;0.70;;;14.60;69.60;;;;;;5058074;28;20084;-68
2023/05/18 01:39:00;;;;;;;1.40;1.00;;;14.60;69.80;;;;;;5058245;28;20029;-68
2023/05/18 01:41:34;;;;;;;3.10;0.93;;;14.60;69.80;;;;;;5057943;28;20369;-68
2023/05/18 01:44:11;;;;;;;0.80;0.80;;;14.60;70.00;;;;;;5058213;28;20370;-68
2023/05/18 01:46:56;;;;;;;1.98;1.00;;;14.50;70.10;;;;;;5058508;28;20025;-68
2023/05/18 01:49:39;;;;;;;3.97;1.00;;;14.50;70.30;;;;;;5058416;28;20086;-67
2023/05/18 01:52:10;;;;;;;1.33;1.20;;;14.50;70.30;;;;;;5057761;28;20037;-68
2023/05/18 01:54:41;;;;;;;2.80;1.00;;;14.50;70.40;;;;;;5058005;28;20029;-68
2023/05/18 01:57:08;;;;;;;2.22;0.98;;;14.50;70.40;;;;;;5057925;28;20450;-68
2023/05/18 01:59:35;;;;;;;1.73;1.10;;;14.50;70.50;;;;;;5058091;28;20488;-68
2023/05/18 02:02:03;;;;;;;2.60;1.13;;;14.50;70.50;;;;;;5057592;28;20035;-68
2023/05/18 02:04:28;;;;;;;6.03;1.40;;;14.40;70.60;;;;;;5057765;28;20113;-68
2023/05/18 02:06:55;;;;;;;2.17;1.20;;;14.40;70.60;;;;;;5057479;28;20040;-68
2023/05/18 02:09:21;;;;;;;1.85;1.20;;;14.40;70.70;;;;;;5057757;28;20036;-68
2023/05/18 02:11:48;;;;;;;3.28;1.45;;;14.40;70.70;;;;;;5057379;28;20116;-67
2023/05/18 02:14:14;;;;;;;1.60;0.98;;;14.30;70.80;;;;;;5057630;28;20393;-67
2023/05/18 02:16:40;;;;;;;2.95;1.30;;;14.30;71.00;;;;;;5056464;28;20025;-68
2023/05/18 02:19:06;;;;;;;2.40;1.20;;;14.20;71.10;;;;;;5057174;28;20439;-67
2023/05/18 02:21:34;;;;;;;1.40;1.30;;;14.20;71.10;;;;;;5057223;28;20100;-67
2023/05/18 02:24:00;;;;;;;10.55;1.38;;;14.10;71.30;;;;;;5057402;28;20036;-68
2023/05/18 02:26:26;;;;;;;2.45;1.48;;;14.10;71.40;;;;;;5057191;28;20021;-68
2023/05/18 02:28:52;;;;;;;2.50;1.67;;;14.00;71.40;;;;;;5057104;28;20072;-67
2023/05/18 02:31:18;;;;;;;2.58;1.73;;;13.90;71.50;;;;;;5057546;28;20029;-67
2023/05/18 02:33:43;;;;;;;3.92;1.55;;;13.90;71.60;;;;;;5057439;28;20338;-68
2023/05/18 02:36:13;;;;;;;3.95;1.90;;;13.90;71.80;;;;;;5057470;28;20059;-67
2023/05/18 02:38:42;;;;;;;4.15;1.70;;;13.80;71.90;;;;;;5056153;28;20091;-67
2023/05/18 02:41:08;;;;;;;3.42;1.92;;;13.70;71.90;;;;;;5057151;28;20074;-68
2023/05/18 02:43:35;;;;;;;3.28;2.25;;;13.60;72.00;;;;;;5072516;28;20036;-68
2023/05/18 02:46:02;;;;;;;5.32;2.63;;;13.60;72.00;;;;;;5056739;28;20032;-68
2023/05/18 02:48:28;;;;;;;3.35;2.08;;;13.50;72.20;;;;;;5057006;28;20040;-67
2023/05/18 02:50:54;;;;;;;4.93;2.40;;;13.50;72.40;;;;;;5056069;28;20025;-68
2023/05/18 02:53:21;;;;;;;4.55;2.17;;;13.40;72.50;;;;;;5056631;28;20124;-68
2023/05/18 02:55:47;;;;;;;5.95;2.53;;;13.40;72.50;;;;;;5056502;28;20354;-68
2023/05/18 02:58:14;;;;;;;4.80;2.70;;;13.40;72.90;;;;;;5056159;28;20060;-68
2023/05/18 03:00:40;;;;;;;3.63;2.08;;;13.30;72.90;;;;;;5056774;28;20032;-68
2023/05/18 03:03:09;;;;;;;5.63;1.95;;;13.20;72.90;;;;;;5056392;28;20032;-67
2023/05/18 03:05:38;;;;;;;2.97;1.80;;;13.10;72.90;;;;;;5056231;28;20025;-68
2023/05/18 03:08:04;;;;;;;5.85;1.95;;;13.10;73.00;;;;;;5056332;28;20568;-67
2023/05/18 03:10:30;;;;;;;4.18;1.98;;;13.00;73.00;;;;;;5056305;28;20470;-68
2023/05/18 03:12:56;;;;;;;3.78;2.30;;;13.00;73.10;;;;;;5056233;28;20048;-68
2023/05/18 03:15:22;;;;;;;4.28;2.05;;;12.90;73.20;;;;;;5056228;28;20451;-67
2023/05/18 03:17:48;;;;;;;3.95;1.65;;;12.90;73.30;;;;;;5056015;28;20024;-68
2023/05/18 03:20:14;;;;;;;2.67;1.67;;;12.90;73.40;;;;;;5056347;28;20025;-68
2023/05/18 03:22:40;;;;;;;4.35;2.22;;;12.80;73.40;;;;;;5056052;28;20032;-68
2023/05/18 03:25:06;;;;;;;4.20;2.17;;;12.80;73.50;;;;;;5055913;28;20071;-68
2023/05/18 03:27:33;;;;;;;4.43;2.47;;;12.80;73.50;;;;;;5055957;28;20424;-67
2023/05/18 03:29:59;;;;;;;8.25;2.85;;;12.70;73.60;;;;;;5055915;28;20063;-68
2023/05/18 03:32:27;;;;;;;4.35;2.58;;;12.60;74.80;;;;;;5055871;28;20021;-67
2023/05/18 03:34:54;;;;;;;4.35;2.30;;;12.50;74.50;;;;;;5055729;28;20112;-67
2023/05/18 03:37:20;;;;;;;6.20;2.50;;;12.50;74.40;;;;;;5055795;28;20442;-68
2023/05/18 03:39:46;;;;;;;6.63;3.20;;;12.50;74.60;;;;;;5055656;28;20079;-67
2023/05/18 03:42:12;;;;;;;5.63;3.63;;;12.40;75.10;;;;;;5055989;28;20024;-67
2023/05/18 03:44:38;;;;;;;5.03;2.70;;;12.40;74.50;;;;;;5055558;28;20021;-67
2023/05/18 03:47:04;;;;;;;5.88;2.83;;;12.40;74.90;;;;;;5055921;28;20469;-67
2023/05/18 03:49:33;;;;;;;5.28;2.50;;;12.30;74.80;;;;;;5056132;28;20025;-68
2023/05/18 03:51:59;;;;;;;4.25;2.20;;;12.40;74.50;;;;;;5055762;28;20383;-68
2023/05/18 03:54:25;;;;;;;3.83;1.98;;;12.30;74.40;;;;;;5055700;28;20033;-68
2023/05/18 03:56:52;;;;;;;4.40;2.20;;;12.30;74.40;;;;;;5055508;28;20370;-68
2023/05/18 03:59:18;;;;;;;7.05;2.20;;;12.30;74.40;;;;;;5055389;28;20135;-68
2023/05/18 04:01:44;;;;;;;2.92;1.83;;;12.30;74.50;;;;;;5054531;28;20462;-68
2023/05/18 04:04:16;;;;;;;5.70;2.13;;;12.30;74.40;;;;;;5054718;28;20025;-68
2023/05/18 04:06:45;;;;;;;4.45;2.78;;;12.40;74.30;;;;;;5055328;28;20025;-68
2023/05/18 04:09:13;;;;;;;5.13;2.70;;;12.40;74.30;;;;;;5055460;28;20025;-68
2023/05/18 04:11:40;;;;;;;5.57;2.60;;;12.40;74.80;;;;;;5055509;28;20035;-68
2023/05/18 04:14:10;;;;;;;4.53;2.67;;;12.40;75.20;;;;;;5055805;28;20082;-68
2023/05/18 04:16:36;;;;;;;6.90;3.40;;;12.40;75.10;;;;;;5054589;28;20421;-68
2023/05/18 04:19:05;;;;;;;3.75;2.53;;;12.40;75.20;;;;;;5055301;28;20053;-68
2023/05/18 04:21:34;;;;;;;5.80;2.33;;;12.40;75.30;;;;;;5055084;28;20025;-68
2023/05/18 04:24:05;;;;;;;3.50;2.50;;;12.40;75.20;;;;;;5054989;28;20033;-68
2023/05/18 04:26:35;;;;;;;5.25;2.67;;;12.40;74.80;;;;;;5055335;28;20021;-68
2023/05/18 04:29:06;;;;;;;4.05;2.13;;;12.50;74.80;;;;;;5054036;28;20028;-69
2023/05/18 04:31:34;;;;;;;4.03;2.40;;;12.70;74.70;;;;;;5055336;28;20076;-68
2023/05/18 04:34:00;;;;;;;4.45;2.58;;;12.90;74.70;;;;;;5055187;28;20037;-68
2023/05/18 04:36:29;;;;;;;4.78;2.40;;;13.40;74.80;;;;;;5054924;28;20116;-68
2023/05/18 04:38:58;;;;;;;6.18;2.90;;;14.10;74.60;;;;;;5054841;28;20323;-68
2023/05/18 04:41:25;;;;;;;3.83;2.40;;;15.10;73.20;;;;;;5054902;28;20067;-68
2023/05/18 04:43:51;;;;;;;4.32;2.28;;;16.20;72.00;;;;;;5055340;28;20066;-68
2023/05/18 04:46:18;;;;;;;6.88;2.60;;;17.30;70.20;;;;;;5055409;28;20104;-68
2023/05/18 04:48:48;;;;;;;5.20;2.90;;;18.20;68.00;;;;;;5071740;28;20094;-69
2023/05/18 04:51:20;;;;;;;6.13;3.10;;;19.10;66.20;;;;;;5055651;28;20072;-68
2023/05/18 04:53:49;;;;;;;4.40;2.80;;;20.20;64.20;;;;;;5055919;28;20146;-68
2023/05/18 04:56:21;;;;;;;5.70;3.10;;;21.20;62.30;;;;;;5055059;28;20021;-69
2023/05/18 04:58:48;;;;;;;6.97;3.10;;;22.00;60.40;;;;;;5054514;28;20374;-69
2023/05/18 05:01:14;;;;;;;8.00;3.03;;;23.00;58.60;;;;;;5071228;28;20025;-69
2023/05/18 05:03:41;;;;;;;7.68;2.70;;;23.90;56.40;;;;;;5058628;28;20560;-69
2023/05/18 05:06:07;;;;;;;5.22;3.08;;;24.80;54.70;;;;;;5058072;28;20024;-70
2023/05/18 05:08:34;;;;;;;7.68;3.00;;;25.50;53.40;;;;;;5059180;28;20025;-68
2023/05/18 05:11:00;;;;;;;4.07;2.70;;;26.30;52.10;;;;;;5058625;28;20033;-69
2023/05/18 05:13:26;;;;;;;4.85;2.60;;;27.00;50.80;;;;;;5058516;28;20052;-69
2023/05/18 05:15:52;;;;;;;7.60;2.38;;;27.60;49.70;;;;;;5058463;28;20056;-69
2023/05/18 05:18:19;;;;;;;5.45;2.47;;;28.30;48.50;;;;;;5058919;28;20035;-69
2023/05/18 05:20:45;;;;;;;3.78;2.60;;;29.00;47.00;;;;;;5058708;28;20017;-69
2023/05/18 05:23:11;;;;;;;6.18;2.88;;;29.70;46.10;;;;;;5058988;28;20092;-69
2023/05/18 05:25:37;;;;;;;6.07;2.65;;;30.30;45.10;;;;;;5058442;28;20389;-69
2023/05/18 05:28:03;;;;;;;4.95;2.53;;;30.90;44.60;;;;;;5058561;28;20021;-69
2023/05/18 05:30:29;;;;;;;5.35;2.70;;;31.50;43.80;;;;;;5058276;28;20082;-69
2023/05/18 05:32:55;;;;;;;4.28;2.58;;;32.00;43.00;;;;;;5058226;28;20021;-69
2023/05/18 05:35:21;;;;;;;3.03;2.35;;;32.50;42.30;;;;;;5057203;28;20128;-69
2023/05/18 05:37:47;;;;;;;6.05;2.67;;;33.00;41.50;;;;;;5058741;28;20021;-69
2023/05/18 05:40:13;;;;;;;4.57;2.95;;;33.50;40.60;;;;;;5058324;28;20029;-69
2023/05/18 05:42:40;;;;;;;4.53;2.70;;;34.00;39.50;;;;;;5058044;28;20071;-69
2023/05/18 05:45:07;;;;;;;5.05;2.90;;;34.40;39.20;;;;;;5057031;28;20025;-69
2023/05/18 05:47:33;;;;;;;4.85;2.70;;;34.60;38.80;;;;;;5058264;28;20501;-69
2023/05/18 05:49:59;;;;;;;5.50;2.63;;;34.90;38.30;;;;;;5057987;28;20041;-69
2023/05/18 05:52:27;;;;;;;3.92;2.40;;;35.30;37.80;;;;;;5058192;28;20028;-69
2023/05/18 05:54:54;;;;;;;3.75;2.33;;;35.70;37.20;;;;;;5058058;28;20037;-69
2023/05/18 05:57:20;;;;;;;6.00;2.47;;;36.10;36.60;;;;;;5056964;28;20052;-70
2023/05/18 05:59:46;;;;;;;3.85;2.25;;;36.40;35.70;;;;;;5057720;28;20025;-70
2023/05/18 06:02:12;;;;;;;4.03;2.13;;;36.70;35.30;;;;;;5057726;28;20087;-69
2023/05/18 06:04:38;;;;;;;2.88;1.90;;;37.10;34.80;;;;;;5057640;28;20021;-69
2023/05/18 06:07:05;;;;;;;4.53;1.90;;;37.70;34.30;;;;;;5057869;28;20083;-69
2023/05/18 06:09:31;;;;;;;2.53;1.80;;;38.20;33.40;;;;;;5057627;28;20451;-69
2023/05/18 06:11:57;;;;;;;3.38;2.05;;;38.70;32.80;;;;;;5056934;28;20080;-69
2023/05/18 06:14:23;;;;;;;4.38;1.70;;;39.20;31.70;;;;;;5056382;28;20025;-69
2023/05/18 06:16:49;;;;;;;3.60;1.75;;;39.60;31.30;;;;;;5057684;28;20029;-67
2023/05/18 06:19:15;;;;;;;3.95;1.90;;;40.00;30.80;;;;;;5057322;28;20484;-66
2023/05/18 06:21:41;;;;;;;1.70;1.60;;;40.40;30.30;;;;;;5057361;28;20017;-67
2023/05/18 06:24:07;;;;;;;3.00;2.00;;;40.70;29.80;;;;;;5057228;28;20022;-67
2023/05/18 06:26:33;;;;;;;2.30;1.70;;;40.90;29.20;;;;;;5057514;28;20021;-67
2023/05/18 06:28:59;;;;;;;2.85;1.85;;;41.20;28.80;;;;;;5056189;28;20036;-67
2023/05/18 06:31:25;;;;;;;2.90;1.60;;;41.40;28.40;;;;;;5057149;28;20481;-67
2023/05/18 06:33:51;;;;;;;2.50;1.60;;;41.70;27.80;;;;;;5072742;28;20043;-67
2023/05/18 06:36:17;;;;;;;4.45;1.67;;;42.00;27.10;;;;;;5057603;28;20031;-67
2023/05/18 06:38:43;;;;;;;2.88;1.45;;;42.40;26.40;;;;;;5057225;28;20057;-69
2023/05/18 06:41:09;;;;;;;2.88;1.65;;;42.60;25.60;;;;;;5057039;28;20017;-69
2023/05/18 06:43:35;;;;;;;3.05;2.00;;;42.80;24.90;;;;;;5056942;28;20029;-69
2023/05/18 06:46:01;;;;;;;2.53;1.70;;;42.90;24.40;;;;;;5056883;28;20017;-69
2023/05/18 06:48:28;;;;;;;2.92;1.60;;;42.20;24.50;;;;;;5056872;28;20354;-69
2023/05/18 06:50:54;;;;;;;3.13;1.73;;;40.80;25.10;;;;;;5056812;28;20112;-69
2023/05/18 06:53:22;;;;;;;2.75;1.52;;;39.30;26.30;;;;;;5056723;28;20032;-69
2023/05/18 06:55:48;;;;;;;2.60;1.70;;;37.40;27.50;;;;;;5056615;28;20025;-69
2023/05/18 06:58:14;;;;;;;2.17;1.58;;;35.70;29.20;;;;;;5056352;28;20060;-69
2023/05/18 07:00:40;;;;;;;2.70;1.80;;;34.30;30.70;;;;;;5056880;28;20051;-69
2023/05/18 07:03:07;;;;;;;3.50;1.80;;;33.00;32.00;;;;;;5055648;28;20078;-69
2023/05/18 07:05:33;;;;;;;3.90;1.90;;;31.90;33.20;;;;;;5057175;28;20096;-69
2023/05/18 07:07:59;;;;;;;3.13;1.85;;;31.00;34.20;;;;;;5056708;28;20024;-69
2023/05/18 07:10:25;;;;;;;2.15;1.60;;;30.40;35.30;;;;;;5056663;28;20025;-69
2023/05/18 07:12:51;;;;;;;1.85;1.20;;;29.90;36.00;;;;;;5056860;28;20031;-69
2023/05/18 07:15:17;;;;;;;1.73;1.60;;;29.50;36.50;;;;;;5056793;28;20036;-69
2023/05/18 07:17:44;;;;;;;3.83;1.60;;;29.20;37.00;;;;;;5056511;28;20020;-69
2023/05/18 07:20:10;;;;;;;2.40;1.90;;;28.90;37.30;;;;;;5055985;28;20096;-69
2023/05/18 07:22:36;;;;;;;1.98;1.65;;;28.70;37.90;;;;;;5056547;28;20021;-69
2023/05/18 07:25:02;;;;;;;3.75;1.52;;;28.50;38.20;;;;;;5055751;28;20044;-69
2023/05/18 07:27:28;;;;;;;2.13;1.55;;;28.40;38.50;;;;;;5056200;28;20028;-69
2023/05/18 07:29:55;;;;;;;2.10;1.55;;;28.20;38.50;;;;;;5056175;28;20073;-69
2023/05/18 07:32:20;;;;;;;1.27;1.17;;;28.10;38.40;;;;;;5056353;28;20025;-69
2023/05/18 07:34:46;;;;;;;2.45;1.60;;;27.90;38.10;;;;;;5055997;28;20032;-69
2023/05/18 07:37:13;;;;;;;2.20;1.52;;;27.90;38.00;;;;;;5055788;28;20450;-66
2023/05/18 07:39:39;;;;;;;2.13;1.65;;;27.60;37.60;;;;;;5056253;28;20064;-69
2023/05/18 07:42:05;;;;;;;3.55;1.60;;;27.50;38.30;;;;;;5055721;28;20036;-69
2023/05/18 07:44:31;;;;;;;2.92;1.48;;;27.40;38.60;;;;;;5055791;28;20032;-69
2023/05/18 07:46:57;;;;;;;1.73;1.42;;;27.40;38.60;;;;;;5056215;28;20020;-66
2023/05/18 07:49:24;;;;;;;2.30;1.40;;;27.20;38.70;;;;;;5055888;28;20061;-69
2023/05/18 07:51:50;;;;;;;2.38;1.63;;;27.20;39.10;;;;;;5055893;28;20029;-67
2023/05/18 07:54:16;;;;;;;2.72;1.50;;;27.10;39.00;;;;;;5055701;28;20131;-67
2023/05/18 07:56:43;;;;;;;2.55;1.65;;;26.90;39.00;;;;;;5055827;28;20032;-67
2023/05/18 07:59:09;;;;;;;2.17;1.73;;;26.80;38.90;;;;;;5055248;28;20052;-67
2023/05/18 08:01:37;;;;;;;2.50;1.70;;;26.70;38.80;;;;;;5055344;28;20017;-67
2023/05/18 08:04:04;;;;;;;2.40;1.50;;;26.50;39.00;;;;;;5055259;28;20044;-67
2023/05/18 08:06:30;;;;;;;2.30;1.90;;;26.40;39.30;;;;;;5055294;28;20017;-67
2023/05/18 08:08:57;;;;;;;2.08;1.88;;;26.30;39.20;;;;;;5055287;28;20087;-67
2023/05/18 08:11:23;;;;;;;2.30;1.73;;;26.20;38.40;;;;;;5055247;28;20332;-67
2023/05/18 08:13:49;;;;;;;4.00;1.85;;;25.90;38.80;;;;;;5070889;28;20116;-67
2023/05/18 08:16:15;;;;;;;2.70;1.95;;;25.70;39.20;;;;;;5055483;28;20028;-67
2023/05/18 08:18:41;;;;;;;2.53;1.65;;;25.60;39.10;;;;;;5070919;28;20047;-67
2023/05/18 08:21:07;;;;;;;2.45;1.63;;;25.50;39.60;;;;;;5070878;28;20104;-67
2023/05/18 08:23:34;;;;;;;3.58;2.30;;;25.40;39.70;;;;;;5055438;28;20111;-67
2023/05/18 08:26:02;;;;;;;1.95;1.75;;;25.40;39.70;;;;;;5054991;28;20025;-67
2023/05/18 08:28:28;;;;;;;2.83;2.25;;;25.10;39.70;;;;;;5054121;28;20033;-67
2023/05/18 08:30:54;;;;;;;2.88;2.10;;;25.00;39.90;;;;;;5055030;28;20024;-67
2023/05/18 08:33:20;;;;;;;2.55;1.83;;;24.90;40.00;;;;;;5070800;28;20025;-68
2023/05/18 08:35:46;;;;;;;4.95;1.90;;;24.90;40.40;;;;;;5054133;28;20088;-68
2023/05/18 08:38:12;;;;;;;2.15;1.65;;;24.90;40.70;;;;;;5055156;28;20044;-67
2023/05/18 08:40:51;;;;;;;3.28;1.75;;;24.80;40.60;;;;;;5055246;28;20017;-68
2023/05/18 08:43:22;;;;;;;2.70;2.28;;;24.80;39.90;;;;;;5054420;28;20455;-67
2023/05/18 08:46:09;;;;;;;2.22;1.90;;;24.70;41.00;;;;;;5054863;28;20031;-68
2023/05/18 08:48:36;;;;;;;2.83;2.05;;;24.50;40.60;;;;;;5054266;28;20043;-68
2023/05/18 08:51:04;;;;;;;4.68;2.38;;;24.40;41.30;;;;;;5055106;28;20029;-67
2023/05/18 08:53:32;;;;;;;2.47;2.10;;;24.40;41.40;;;;;;5055097;28;20047;-68
2023/05/18 08:56:00;;;;;;;2.08;1.88;;;24.40;41.50;;;;;;5054716;28;20044;-68
2023/05/18 08:58:34;;;;;;;2.75;2.13;;;24.40;41.40;;;;;;5054740;28;20467;-67
2023/05/18 09:01:01;;;;;;;2.47;1.77;;;24.40;41.50;;;;;;5055345;28;20021;-67
2023/05/18 09:03:28;;;;;;;2.25;1.70;;;24.50;41.80;;;;;;5054982;28;20025;-67
2023/05/18 09:05:55;;;;;;;3.13;1.85;;;24.50;41.70;;;;;;5055223;28;20029;-68
2023/05/18 09:08:23;;;;;;;4.75;2.20;;;24.50;41.60;;;;;;5054675;28;20025;-68
2023/05/18 09:10:50;;;;;;;6.85;2.30;;;24.50;41.30;;;;;;5053783;28;20041;-68
2023/05/18 09:13:21;;;;;;;2.92;2.25;;;24.40;41.50;;;;;;5054254;28;20025;-67
2023/05/18 09:15:50;;;;;;;2.33;1.70;;;24.50;41.80;;;;;;5054538;28;20461;-68
2023/05/18 09:18:15;;;;;;;2.10;1.80;;;24.40;41.80;;;;;;5051881;28;20346;-67
2023/05/18 09:20:41;;;;;;;3.35;1.90;;;24.40;41.50;;;;;;5052925;28;20025;-68
2023/05/18 09:23:08;;;;;;;2.55;1.95;;;24.30;41.40;;;;;;5053121;28;20013;-67
2023/05/18 09:25:40;;;;;;;2.80;2.50;;;24.30;41.30;;;;;;5054482;28;20033;-68
2023/05/18 09:28:05;;;;;;;2.40;1.52;;;24.20;41.10;;;;;;5053607;28;20021;-68
2023/05/18 09:30:39;;;;;;;2.25;1.67;;;24.20;41.60;;;;;;5054792;28;20028;-67
2023/05/18 09:33:13;;;;;;;2.03;1.75;;;24.30;40.80;;;;;;5054480;28;20116;-67
2023/05/18 09:35:39;;;;;;;1.40;1.23;;;24.40;40.20;;;;;;5054944;28;20025;-67
2023/05/18 09:38:06;;;;;;;2.78;1.60;;;24.30;39.40;;;;;;5054894;28;20084;-67
2023/05/18 09:40:33;;;;;;;3.92;1.98;;;24.20;39.70;;;;;;5054697;28;20104;-67
2023/05/18 09:43:06;;;;;;;4.07;2.13;;;24.10;39.60;;;;;;5053423;28;20400;-67
2023/05/18 09:45:32;;;;;;;1.77;1.63;;;24.10;39.00;;;;;;5053772;28;20105;-67
2023/05/18 09:47:58;;;;;;;1.90;1.77;;;24.10;39.90;;;;;;5056175;28;20021;-68
2023/05/18 09:50:24;;;;;;;3.03;1.80;;;24.00;38.90;;;;;;5058192;28;20178;-68
2023/05/18 09:52:51;;;;;;;2.58;2.13;;;23.90;38.90;;;;;;5058406;28;20025;-67
2023/05/18 09:55:18;;;;;;;2.67;1.92;;;23.70;38.70;;;;;;5057977;28;20032;-67
2023/05/18 09:57:56;;;;;;;5.28;2.53;;;23.60;39.40;;;;;;5056709;28;20049;-67
2023/05/18 10:00:22;;;;;;;4.15;2.40;;;23.70;39.90;;;;;;5057984;28;20025;-67
2023/05/18 10:02:51;;;;;;;2.53;1.90;;;23.70;40.20;;;;;;5057923;28;20028;-68
2023/05/18 10:05:32;;;;;;;3.58;1.90;;;23.60;40.80;;;;;;5057102;28;20068;-67
2023/05/18 10:07:59;;;;;;;3.28;2.30;;;23.70;40.50;;;;;;5057827;28;20021;-68
2023/05/18 10:10:26;;;;;;;4.15;2.10;;;23.70;40.90;;;;;;5057557;28;20033;-67
2023/05/18 10:12:53;;;;;;;2.90;2.30;;;23.80;40.90;;;;;;5057520;28;20029;-67
2023/05/18 10:15:21;;;;;;;2.22;1.77;;;23.80;41.00;;;;;;5057438;28;20039;-68
2023/05/18 10:17:49;;;;;;;1.85;1.50;;;23.90;41.00;;;;;;5057436;28;20037;-67
2023/05/18 10:20:20;;;;;;;2.17;1.83;;;24.00;41.00;;;;;;5057550;28;20116;-67
2023/05/18 10:22:48;;;;;;;5.97;2.03;;;24.20;41.20;;;;;;5057332;28;20450;-67
2023/05/18 10:25:18;;;;;;;2.78;2.20;;;24.20;41.30;;;;;;5057775;28;20067;-67
2023/05/18 10:27:47;;;;;;;2.58;2.10;;;24.30;40.40;;;;;;5056615;28;20125;-68
2023/05/18 10:30:14;;;;;;;2.83;2.40;;;24.20;40.50;;;;;;5057424;28;20029;-67
2023/05/18 10:32:41;;;;;;;2.13;1.73;;;24.30;40.40;;;;;;5056070;28;20029;-67
2023/05/18 10:35:08;;;;;;;3.45;1.80;;;24.30;40.50;;;;;;5057328;28;20060;-67
2023/05/18 10:37:36;;;;;;;1.65;1.55;;;24.40;40.40;;;;;;5056069;28;20033;-67
2023/05/18 10:40:03;;;;;;;2.28;1.67;;;24.40;39.70;;;;;;5057454;28;20025;-67
2023/05/18 10:42:30;;;;;;;2.13;1.27;;;24.40;40.30;;;;;;5056987;28;20100;-67
2023/05/18 10:44:57;;;;;;;1.42;1.15;;;24.50;40.00;;;;;;5057074;28;20346;-67
2023/05/18 10:47:27;;;;;;;1.48;1.08;;;24.40;38.90;;;;;;5056830;28;20457;-67
2023/05/18 10:49:53;;;;;;;3.83;1.30;;;24.40;38.10;;;;;;5056860;28;20150;-68
2023/05/18 10:52:20;;;;;;;2.22;1.02;;;24.30;38.60;;;;;;5056834;28;20112;-67
2023/05/18 10:54:46;;;;;;;2.03;1.50;;;24.40;39.00;;;;;;5056903;28;20507;-67
2023/05/18 10:57:15;;;;;;;1.50;1.40;;;24.50;39.30;;;;;;5056772;28;20053;-67
2023/05/18 10:59:45;;;;;;;2.55;1.40;;;24.50;39.50;;;;;;5056049;28;20021;-67
2023/05/18 11:02:16;;;;;;;2.53;1.40;;;24.50;39.80;;;;;;5056624;28;20021;-67
2023/05/18 11:04:42;;;;;;;1.40;1.30;;;24.60;39.70;;;;;;5055824;28;20044;-67
2023/05/18 11:07:12;;;;;;;4.07;1.50;;;24.50;39.80;;;;;;5056438;28;20025;-67
2023/05/18 11:09:42;;;;;;;2.88;1.50;;;24.50;39.70;;;;;;5056447;28;20079;-67
2023/05/18 11:12:13;;;;;;;3.33;1.27;;;24.40;39.70;;;;;;5056639;28;20029;-68
2023/05/18 11:14:54;;;;;;;2.05;1.40;;;24.40;40.00;;;;;;5055412;28;20017;-67
2023/05/18 11:17:28;;;;;;;1.52;1.30;;;24.40;39.80;;;;;;5056246;28;20090;-67
2023/05/18 11:20:10;;;;;;;3.05;1.30;;;24.40;39.00;;;;;;5056166;28;20112;-67
2023/05/18 11:22:40;;;;;;;1.77;1.17;;;24.20;39.40;;;;;;5056155;28;20458;-67
2023/05/18 11:25:09;;;;;;;1.58;1.48;;;24.20;39.40;;;;;;5055970;28;20053;-67
2023/05/18 11:27:35;;;;;;;2.88;1.58;;;24.10;39.30;;;;;;5056062;28;20025;-68
2023/05/18 11:30:01;;;;;;;2.53;1.52;;;24.10;38.70;;;;;;5056310;28;20394;-67
2023/05/18 11:32:31;;;;;;;1.10;1.00;;;24.00;38.90;;;;;;5056262;28;20122;-67
2023/05/18 11:34:57;;;;;;;2.80;1.15;;;23.90;39.20;;;;;;5055821;28;20021;-67
2023/05/18 11:37:38;;;;;;;1.65;1.38;;;23.90;38.70;;;;;;5056193;28;20083;-67
2023/05/18 11:40:09;;;;;;;1.80;1.25;;;23.80;38.30;;;;;;5055750;28;20035;-67
2023/05/18 11:42:36;;;;;;;1.52;1.10;;;23.80;38.30;;;;;;5056090;28;20037;-67
2023/05/18 11:45:08;;;;;;;1.42;1.00;;;23.70;37.80;;;;;;5055958;28;20108;-67
2023/05/18 11:47:35;;;;;;;1.52;1.05;;;23.50;38.00;;;;;;5055968;28;20071;-67
2023/05/18 11:50:01;;;;;;;2.75;1.08;;;23.40;38.40;;;;;;5056216;28;20377;-67
2023/05/18 11:52:28;;;;;;;2.22;1.20;;;23.10;37.70;;;;;;5055865;28;20037;-67
2023/05/18 11:54:56;;;;;;;2.63;1.20;;;22.90;38.50;;;;;;5055403;28;20024;-67
2023/05/18 11:57:33;;;;;;;1.25;1.02;;;22.90;38.80;;;;;;5055624;28;20045;-67
2023/05/18 12:00:02;;;;;;;1.67;1.23;;;22.90;39.40;;;;;;5055655;28;20086;-67
2023/05/18 12:02:32;;;;;;;3.42;0.90;;;22.90;39.40;;;;;;5055723;28;20039;-68
2023/05/18 12:05:00;;;;;;;1.50;0.75;;;22.90;39.70;;;;;;5055341;28;20032;-67
2023/05/18 12:07:28;;;;;;;1.98;1.00;;;23.00;38.90;;;;;;5055395;28;20025;-67
2023/05/18 12:10:01;;;;;;;2.72;1.30;;;23.00;39.10;;;;;;5055790;28;20032;-67
2023/05/18 12:12:28;;;;;;;1.23;1.00;;;23.00;39.40;;;;;;5055925;28;20104;-67
2023/05/18 12:14:58;;;;;;;1.60;1.05;;;23.00;39.70;;;;;;5054262;28;20048;-68
2023/05/18 12:17:41;;;;;;;2.05;1.00;;;23.10;39.70;;;;;;5055495;28;20033;-67
2023/05/18 12:20:10;;;;;;;1.98;1.08;;;23.20;39.70;;;;;;5055437;28;20055;-67
2023/05/18 12:22:36;;;;;;;1.88;1.40;;;23.30;40.50;;;;;;5055916;28;20021;-67
2023/05/18 12:25:02;;;;;;;2.55;0.88;;;23.40;40.10;;;;;;5055090;28;20017;-68
2023/05/18 12:27:28;;;;;;;0.93;0.90;;;23.40;40.30;;;;;;5055113;28;20072;-67
2023/05/18 12:29:54;;;;;;;1.10;1.00;;;23.50;39.80;;;;;;5055322;28;20025;-67
2023/05/18 12:32:20;;;;;;;1.15;0.90;;;23.40;38.70;;;;;;5055031;28;20362;-68
2023/05/18 12:34:46;;;;;;;1.58;1.00;;;23.30;39.40;;;;;;5054941;28;20025;-67
2023/05/18 12:37:12;;;;;;;2.83;1.17;;;23.20;38.80;;;;;;5054988;28;20032;-67
2023/05/18 12:39:38;;;;;;;1.45;1.17;;;23.10;38.50;;;;;;5054871;28;20033;-67
2023/05/18 12:42:14;;;;;;;0.90;0.90;;;23.00;39.30;;;;;;5054967;28;20104;-68
2023/05/18 12:44:44;;;;;;;3.83;1.05;;;23.00;39.70;;;;;;5054865;28;20039;-67
2023/05/18 12:47:11;;;;;;;1.17;0.80;;;23.00;40.10;;;;;;5054961;28;20467;-67
2023/05/18 12:49:39;;;;;;;1.15;0.80;;;23.10;40.20;;;;;;5054927;28;20025;-68
2023/05/18 12:52:10;;;;;;;2.63;1.40;;;23.10;40.20;;;;;;5054776;28;20044;-67